Aviation Digital Data Service (ADDS)

Output produced by METARs form (2313 UTC 18 August 2019)
found at http://www.aviationweather.gov/metar/data/
 
Forecast for: EBFN (KOKSIJDE (BEL-AF, BE)
Text: TAF EBFN 181541Z 1819/1907 23015KT 9999 FEW030 SCT280
Forecast period: 1900 UTC 18 August 2019 to 0700 UTC 19 August 2019
Forecast type: FROM: standard forecast or significant change
Winds: from the SW (230 degrees) at 17 MPH (15 knots; 7.7 m/s)
Visibility: 6 or more miles 10+ km)
Ceiling: at least 12,000 feet AGL
Clouds: few clouds at 3000 feet AGL
scattered clouds at 28000 feet AGL
Weather: no significant weather forecast for this period
Text: TEMPO 1819/1907 23017G28KT SCT018
Forecast period: 1900 UTC 18 August 2019 to 0700 UTC 19 August 2019
Forecast type: TEMPORARY: The following changes expected for less than half the time period
Winds: from the SW (230 degrees) at 20 MPH (17 knots; 8.7 m/s)
gusting to 32 MPH (28 knots; 14.4 m/s)
Visibility: missing
Ceiling: at least 12,000 feet AGL
Clouds: scattered clouds at 1800 feet AGL
Weather: no significant weather forecast for this period